EHQE

Hoorn-a Sea

Hoorn-a Sea, The Netherlands
METAR EHQE 260355Z AUTO 05020KT //// // NSC 16/12 Q1019 W///H///
Observed Flight Rules
May-26 @ 03:55 UTC (30 minutes ago)
Wind Clouds
50° at 20 knots
  • Clear skies
Temperatures Readings
Current 16°C / 61°F
Dewpoint 12°C / 54°F
Humidity 77%
Altimeter 30.09" Hg
Pressure 1019 hPa
Elevation 50
METAR EHQE 260355Z AUTO 05020KT //// // NSC 16/12 Q1019 W///H///
Observed Flight Rules
May-26 @ 03:55 UTC
(30 minutes ago)
Wind
50° at 20 knots
Clouds
  • Clear skies
Temperature Dewpoint
16°C / 61°F 12°C / 54°F
Humidity Altimeter Pressure
77% 30.09" Hg 1019 hPa